sensor_id;sensor_type;location;lat;lon;timestamp;P1;durP1;ratioP1;P2;durP2;ratioP2
53271;SDS011;39160;48.580;7.756;2023-05-20T00:03:07;2.70;;;1.55;;
53271;SDS011;39160;48.580;7.756;2023-05-20T00:07:58;4.72;;;1.80;;
53271;SDS011;39160;48.580;7.756;2023-05-20T00:12:49;2.25;;;1.30;;
53271;SDS011;39160;48.580;7.756;2023-05-20T00:17:40;2.33;;;1.60;;
53271;SDS011;39160;48.580;7.756;2023-05-20T00:22:30;2.83;;;1.92;;
53271;SDS011;39160;48.580;7.756;2023-05-20T00:27:22;3.50;;;1.55;;
53271;SDS011;39160;48.580;7.756;2023-05-20T00:32:13;2.65;;;1.40;;
53271;SDS011;39160;48.580;7.756;2023-05-20T00:37:04;1.90;;;1.55;;
53271;SDS011;39160;48.580;7.756;2023-05-20T00:41:55;2.25;;;1.75;;
53271;SDS011;39160;48.580;7.756;2023-05-20T00:46:49;5.85;;;2.00;;
53271;SDS011;39160;48.580;7.756;2023-05-20T00:51:40;3.80;;;1.67;;
53271;SDS011;39160;48.580;7.756;2023-05-20T00:56:30;4.15;;;1.90;;
53271;SDS011;39160;48.580;7.756;2023-05-20T01:01:21;3.53;;;1.92;;
53271;SDS011;39160;48.580;7.756;2023-05-20T01:06:12;2.65;;;1.80;;
53271;SDS011;39160;48.580;7.756;2023-05-20T01:11:05;2.67;;;1.60;;
53271;SDS011;39160;48.580;7.756;2023-05-20T01:15:59;2.67;;;1.77;;
53271;SDS011;39160;48.580;7.756;2023-05-20T01:20:52;4.82;;;1.90;;
53271;SDS011;39160;48.580;7.756;2023-05-20T01:25:44;3.30;;;1.58;;
53271;SDS011;39160;48.580;7.756;2023-05-20T01:30:36;2.50;;;1.70;;
53271;SDS011;39160;48.580;7.756;2023-05-20T01:35:32;3.30;;;2.53;;
53271;SDS011;39160;48.580;7.756;2023-05-20T01:40:24;2.38;;;1.58;;
53271;SDS011;39160;48.580;7.756;2023-05-20T01:45:16;3.83;;;1.80;;
53271;SDS011;39160;48.580;7.756;2023-05-20T01:50:08;3.38;;;1.92;;
53271;SDS011;39160;48.580;7.756;2023-05-20T01:54:58;5.60;;;2.58;;
53271;SDS011;39160;48.580;7.756;2023-05-20T01:59:49;2.72;;;1.77;;
53271;SDS011;39160;48.580;7.756;2023-05-20T02:04:41;2.97;;;1.90;;
53271;SDS011;39160;48.580;7.756;2023-05-20T02:09:36;2.67;;;1.85;;
53271;SDS011;39160;48.580;7.756;2023-05-20T02:14:27;2.45;;;1.50;;
53271;SDS011;39160;48.580;7.756;2023-05-20T02:19:18;4.47;;;2.45;;
53271;SDS011;39160;48.580;7.756;2023-05-20T02:24:12;6.07;;;2.47;;
53271;SDS011;39160;48.580;7.756;2023-05-20T02:29:03;3.92;;;1.95;;
53271;SDS011;39160;48.580;7.756;2023-05-20T02:33:54;3.08;;;1.70;;
53271;SDS011;39160;48.580;7.756;2023-05-20T02:38:44;5.70;;;1.55;;
53271;SDS011;39160;48.580;7.756;2023-05-20T02:43:35;5.28;;;1.98;;
53271;SDS011;39160;48.580;7.756;2023-05-20T02:48:26;2.70;;;1.67;;
53271;SDS011;39160;48.580;7.756;2023-05-20T02:53:16;3.22;;;1.80;;
53271;SDS011;39160;48.580;7.756;2023-05-20T02:58:07;2.95;;;1.73;;
53271;SDS011;39160;48.580;7.756;2023-05-20T03:02:57;2.15;;;1.48;;
53271;SDS011;39160;48.580;7.756;2023-05-20T03:07:48;2.47;;;1.77;;
53271;SDS011;39160;48.580;7.756;2023-05-20T03:12:39;3.22;;;1.70;;
53271;SDS011;39160;48.580;7.756;2023-05-20T03:17:29;3.47;;;1.88;;
53271;SDS011;39160;48.580;7.756;2023-05-20T03:22:20;2.72;;;1.90;;
53271;SDS011;39160;48.580;7.756;2023-05-20T03:27:11;2.75;;;1.75;;
53271;SDS011;39160;48.580;7.756;2023-05-20T03:32:01;3.05;;;1.88;;
53271;SDS011;39160;48.580;7.756;2023-05-20T03:36:52;5.78;;;1.88;;
53271;SDS011;39160;48.580;7.756;2023-05-20T03:41:43;3.47;;;1.83;;
53271;SDS011;39160;48.580;7.756;2023-05-20T03:46:33;1.88;;;1.58;;
53271;SDS011;39160;48.580;7.756;2023-05-20T03:51:24;2.90;;;2.08;;
53271;SDS011;39160;48.580;7.756;2023-05-20T03:56:15;2.58;;;1.35;;
53271;SDS011;39160;48.580;7.756;2023-05-20T04:01:06;2.33;;;1.48;;
53271;SDS011;39160;48.580;7.756;2023-05-20T04:05:57;2.15;;;1.65;;
53271;SDS011;39160;48.580;7.756;2023-05-20T04:10:47;2.17;;;1.73;;
53271;SDS011;39160;48.580;7.756;2023-05-20T04:15:38;3.60;;;1.50;;
53271;SDS011;39160;48.580;7.756;2023-05-20T04:20:30;1.50;;;1.38;;
53271;SDS011;39160;48.580;7.756;2023-05-20T04:25:21;4.78;;;2.13;;
53271;SDS011;39160;48.580;7.756;2023-05-20T04:30:11;3.60;;;2.45;;
53271;SDS011;39160;48.580;7.756;2023-05-20T04:35:03;2.83;;;1.73;;
53271;SDS011;39160;48.580;7.756;2023-05-20T04:39:58;3.22;;;2.50;;
53271;SDS011;39160;48.580;7.756;2023-05-20T04:44:48;2.78;;;1.65;;
53271;SDS011;39160;48.580;7.756;2023-05-20T04:49:39;1.85;;;1.67;;
53271;SDS011;39160;48.580;7.756;2023-05-20T04:54:31;2.95;;;1.95;;
53271;SDS011;39160;48.580;7.756;2023-05-20T04:59:22;3.40;;;2.20;;
53271;SDS011;39160;48.580;7.756;2023-05-20T05:04:12;2.35;;;1.63;;
53271;SDS011;39160;48.580;7.756;2023-05-20T05:09:03;5.50;;;2.20;;
53271;SDS011;39160;48.580;7.756;2023-05-20T05:13:53;2.25;;;1.92;;
53271;SDS011;39160;48.580;7.756;2023-05-20T05:18:44;4.18;;;2.08;;
53271;SDS011;39160;48.580;7.756;2023-05-20T05:23:35;3.53;;;2.20;;
53271;SDS011;39160;48.580;7.756;2023-05-20T05:28:26;3.78;;;1.77;;
53271;SDS011;39160;48.580;7.756;2023-05-20T05:33:16;3.60;;;2.05;;
53271;SDS011;39160;48.580;7.756;2023-05-20T05:38:07;2.72;;;2.05;;
53271;SDS011;39160;48.580;7.756;2023-05-20T05:42:58;3.38;;;2.10;;
53271;SDS011;39160;48.580;7.756;2023-05-20T05:47:49;2.90;;;2.10;;
53271;SDS011;39160;48.580;7.756;2023-05-20T05:52:39;4.53;;;1.90;;
53271;SDS011;39160;48.580;7.756;2023-05-20T05:57:30;6.25;;;2.22;;
53271;SDS011;39160;48.580;7.756;2023-05-20T06:02:21;4.60;;;1.98;;
53271;SDS011;39160;48.580;7.756;2023-05-20T06:07:12;4.35;;;2.03;;
53271;SDS011;39160;48.580;7.756;2023-05-20T06:12:02;3.13;;;2.13;;
53271;SDS011;39160;48.580;7.756;2023-05-20T06:16:53;2.60;;;1.98;;
53271;SDS011;39160;48.580;7.756;2023-05-20T06:21:44;3.45;;;2.20;;
53271;SDS011;39160;48.580;7.756;2023-05-20T06:26:34;2.78;;;2.17;;
53271;SDS011;39160;48.580;7.756;2023-05-20T06:31:25;3.75;;;2.33;;
53271;SDS011;39160;48.580;7.756;2023-05-20T06:36:16;4.45;;;2.53;;
53271;SDS011;39160;48.580;7.756;2023-05-20T06:41:07;3.88;;;2.28;;
53271;SDS011;39160;48.580;7.756;2023-05-20T06:45:57;3.42;;;2.10;;
53271;SDS011;39160;48.580;7.756;2023-05-20T06:50:48;2.80;;;2.30;;
53271;SDS011;39160;48.580;7.756;2023-05-20T06:55:38;5.10;;;2.28;;
53271;SDS011;39160;48.580;7.756;2023-05-20T07:00:29;3.92;;;2.40;;
53271;SDS011;39160;48.580;7.756;2023-05-20T07:05:20;4.90;;;2.00;;
53271;SDS011;39160;48.580;7.756;2023-05-20T07:10:11;2.83;;;1.88;;
53271;SDS011;39160;48.580;7.756;2023-05-20T07:15:01;5.35;;;2.42;;
53271;SDS011;39160;48.580;7.756;2023-05-20T07:19:52;4.43;;;2.60;;
53271;SDS011;39160;48.580;7.756;2023-05-20T07:24:43;3.95;;;2.83;;
53271;SDS011;39160;48.580;7.756;2023-05-20T07:29:34;4.10;;;2.72;;
53271;SDS011;39160;48.580;7.756;2023-05-20T07:34:26;3.45;;;2.90;;
53271;SDS011;39160;48.580;7.756;2023-05-20T07:39:16;3.60;;;2.67;;
53271;SDS011;39160;48.580;7.756;2023-05-20T07:44:07;3.60;;;2.35;;
53271;SDS011;39160;48.580;7.756;2023-05-20T07:48:57;4.72;;;3.67;;
53271;SDS011;39160;48.580;7.756;2023-05-20T07:53:48;5.93;;;3.15;;
53271;SDS011;39160;48.580;7.756;2023-05-20T07:58:40;3.95;;;2.75;;
53271;SDS011;39160;48.580;7.756;2023-05-20T08:03:31;4.68;;;2.60;;
53271;SDS011;39160;48.580;7.756;2023-05-20T08:08:22;4.93;;;3.33;;
53271;SDS011;39160;48.580;7.756;2023-05-20T08:13:12;2.92;;;2.38;;
53271;SDS011;39160;48.580;7.756;2023-05-20T08:18:03;4.97;;;3.67;;
53271;SDS011;39160;48.580;7.756;2023-05-20T08:22:53;3.28;;;2.60;;
53271;SDS011;39160;48.580;7.756;2023-05-20T08:27:44;3.78;;;2.92;;
53271;SDS011;39160;48.580;7.756;2023-05-20T08:32:35;5.10;;;3.03;;
53271;SDS011;39160;48.580;7.756;2023-05-20T08:37:26;3.70;;;2.55;;
53271;SDS011;39160;48.580;7.756;2023-05-20T08:42:24;4.38;;;2.90;;
53271;SDS011;39160;48.580;7.756;2023-05-20T08:47:15;3.67;;;2.63;;
53271;SDS011;39160;48.580;7.756;2023-05-20T08:52:06;4.25;;;2.63;;
53271;SDS011;39160;48.580;7.756;2023-05-20T08:57:00;5.63;;;2.75;;
53271;SDS011;39160;48.580;7.756;2023-05-20T09:01:51;5.20;;;3.28;;
53271;SDS011;39160;48.580;7.756;2023-05-20T09:06:43;4.20;;;2.95;;
53271;SDS011;39160;48.580;7.756;2023-05-20T09:11:34;9.32;;;3.40;;
53271;SDS011;39160;48.580;7.756;2023-05-20T09:16:25;5.25;;;3.22;;
53271;SDS011;39160;48.580;7.756;2023-05-20T09:21:16;4.53;;;2.70;;
53271;SDS011;39160;48.580;7.756;2023-05-20T09:26:06;3.05;;;2.28;;
53271;SDS011;39160;48.580;7.756;2023-05-20T09:30:57;5.65;;;3.35;;
53271;SDS011;39160;48.580;7.756;2023-05-20T09:35:48;4.75;;;3.30;;
53271;SDS011;39160;48.580;7.756;2023-05-20T09:40:39;6.00;;;2.92;;
53271;SDS011;39160;48.580;7.756;2023-05-20T09:45:33;4.28;;;2.72;;
53271;SDS011;39160;48.580;7.756;2023-05-20T09:50:24;7.00;;;4.43;;
53271;SDS011;39160;48.580;7.756;2023-05-20T09:55:16;4.50;;;3.30;;
53271;SDS011;39160;48.580;7.756;2023-05-20T10:00:08;5.88;;;3.30;;
53271;SDS011;39160;48.580;7.756;2023-05-20T10:05:03;6.40;;;3.17;;
53271;SDS011;39160;48.580;7.756;2023-05-20T10:10:09;4.72;;;3.30;;
53271;SDS011;39160;48.580;7.756;2023-05-20T10:15:16;7.55;;;4.38;;
53271;SDS011;39160;48.580;7.756;2023-05-20T10:20:16;5.35;;;3.63;;
53271;SDS011;39160;48.580;7.756;2023-05-20T10:25:08;4.88;;;3.78;;
53271;SDS011;39160;48.580;7.756;2023-05-20T10:34:57;6.97;;;3.45;;
53271;SDS011;39160;48.580;7.756;2023-05-20T10:40:06;4.65;;;3.20;;
53271;SDS011;39160;48.580;7.756;2023-05-20T10:45:02;4.05;;;3.20;;
53271;SDS011;39160;48.580;7.756;2023-05-20T10:49:56;4.90;;;3.45;;
53271;SDS011;39160;48.580;7.756;2023-05-20T10:54:56;4.97;;;3.47;;
53271;SDS011;39160;48.580;7.756;2023-05-20T10:59:48;5.65;;;4.18;;
53271;SDS011;39160;48.580;7.756;2023-05-20T11:04:41;3.67;;;2.92;;
53271;SDS011;39160;48.580;7.756;2023-05-20T11:09:32;7.55;;;3.40;;
53271;SDS011;39160;48.580;7.756;2023-05-20T11:14:23;3.72;;;3.13;;
53271;SDS011;39160;48.580;7.756;2023-05-20T11:19:14;4.78;;;2.95;;
53271;SDS011;39160;48.580;7.756;2023-05-20T11:24:05;5.15;;;4.25;;
53271;SDS011;39160;48.580;7.756;2023-05-20T11:28:56;5.18;;;3.85;;
53271;SDS011;39160;48.580;7.756;2023-05-20T11:33:46;4.03;;;2.80;;
53271;SDS011;39160;48.580;7.756;2023-05-20T11:38:39;4.75;;;3.03;;
53271;SDS011;39160;48.580;7.756;2023-05-20T11:43:32;4.32;;;3.47;;
53271;SDS011;39160;48.580;7.756;2023-05-20T11:48:23;3.55;;;2.83;;
53271;SDS011;39160;48.580;7.756;2023-05-20T11:53:15;3.97;;;3.05;;
53271;SDS011;39160;48.580;7.756;2023-05-20T11:58:10;5.20;;;2.80;;
53271;SDS011;39160;48.580;7.756;2023-05-20T12:03:04;3.10;;;2.67;;
53271;SDS011;39160;48.580;7.756;2023-05-20T12:07:54;3.78;;;2.90;;
53271;SDS011;39160;48.580;7.756;2023-05-20T12:12:45;3.40;;;2.80;;
53271;SDS011;39160;48.580;7.756;2023-05-20T12:17:49;14.02;;;7.35;;
53271;SDS011;39160;48.580;7.756;2023-05-20T12:22:40;5.90;;;3.83;;
53271;SDS011;39160;48.580;7.756;2023-05-20T12:27:31;5.18;;;3.38;;
53271;SDS011;39160;48.580;7.756;2023-05-20T12:32:22;4.13;;;3.58;;
53271;SDS011;39160;48.580;7.756;2023-05-20T12:37:13;4.05;;;2.58;;
53271;SDS011;39160;48.580;7.756;2023-05-20T12:42:04;4.72;;;3.05;;
53271;SDS011;39160;48.580;7.756;2023-05-20T12:46:55;4.80;;;4.07;;
53271;SDS011;39160;48.580;7.756;2023-05-20T12:51:46;4.93;;;3.17;;
53271;SDS011;39160;48.580;7.756;2023-05-20T12:56:36;4.25;;;3.17;;
53271;SDS011;39160;48.580;7.756;2023-05-20T13:01:28;3.60;;;3.28;;
53271;SDS011;39160;48.580;7.756;2023-05-20T13:06:18;4.47;;;2.80;;
53271;SDS011;39160;48.580;7.756;2023-05-20T13:11:09;3.67;;;3.00;;
53271;SDS011;39160;48.580;7.756;2023-05-20T13:16:00;5.60;;;3.03;;
53271;SDS011;39160;48.580;7.756;2023-05-20T13:20:51;3.63;;;2.60;;
53271;SDS011;39160;48.580;7.756;2023-05-20T13:25:42;3.05;;;2.67;;
53271;SDS011;39160;48.580;7.756;2023-05-20T13:30:33;6.13;;;3.20;;
53271;SDS011;39160;48.580;7.756;2023-05-20T13:35:23;3.70;;;2.85;;
53271;SDS011;39160;48.580;7.756;2023-05-20T13:40:14;3.50;;;2.97;;
53271;SDS011;39160;48.580;7.756;2023-05-20T13:45:05;6.35;;;3.30;;
53271;SDS011;39160;48.580;7.756;2023-05-20T13:49:56;7.82;;;3.72;;
53271;SDS011;39160;48.580;7.756;2023-05-20T13:54:47;4.25;;;2.70;;
53271;SDS011;39160;48.580;7.756;2023-05-20T13:59:37;4.82;;;3.50;;
53271;SDS011;39160;48.580;7.756;2023-05-20T14:04:28;4.97;;;3.17;;
53271;SDS011;39160;48.580;7.756;2023-05-20T14:09:20;5.03;;;3.40;;
53271;SDS011;39160;48.580;7.756;2023-05-20T14:14:10;5.22;;;3.33;;
53271;SDS011;39160;48.580;7.756;2023-05-20T14:19:01;3.83;;;2.97;;
53271;SDS011;39160;48.580;7.756;2023-05-20T14:23:51;3.90;;;2.97;;
53271;SDS011;39160;48.580;7.756;2023-05-20T14:28:42;4.70;;;3.55;;
53271;SDS011;39160;48.580;7.756;2023-05-20T14:33:33;5.18;;;3.28;;
53271;SDS011;39160;48.580;7.756;2023-05-20T14:38:23;3.58;;;3.03;;
53271;SDS011;39160;48.580;7.756;2023-05-20T14:43:15;4.13;;;3.22;;
53271;SDS011;39160;48.580;7.756;2023-05-20T14:48:06;6.10;;;3.45;;
53271;SDS011;39160;48.580;7.756;2023-05-20T14:52:57;3.55;;;3.13;;
53271;SDS011;39160;48.580;7.756;2023-05-20T14:57:47;4.75;;;3.55;;
53271;SDS011;39160;48.580;7.756;2023-05-20T15:02:38;3.67;;;3.10;;
53271;SDS011;39160;48.580;7.756;2023-05-20T15:07:28;4.03;;;3.25;;
53271;SDS011;39160;48.580;7.756;2023-05-20T15:12:19;4.68;;;3.95;;
53271;SDS011;39160;48.580;7.756;2023-05-20T15:17:10;4.20;;;2.97;;
53271;SDS011;39160;48.580;7.756;2023-05-20T15:22:01;5.93;;;4.00;;
53271;SDS011;39160;48.580;7.756;2023-05-20T15:26:52;3.50;;;2.97;;
53271;SDS011;39160;48.580;7.756;2023-05-20T15:31:43;4.53;;;3.40;;
53271;SDS011;39160;48.580;7.756;2023-05-20T15:36:35;3.70;;;3.10;;
53271;SDS011;39160;48.580;7.756;2023-05-20T15:41:26;4.22;;;3.65;;
53271;SDS011;39160;48.580;7.756;2023-05-20T15:46:16;4.45;;;3.45;;
53271;SDS011;39160;48.580;7.756;2023-05-20T15:51:07;3.92;;;3.35;;
53271;SDS011;39160;48.580;7.756;2023-05-20T15:55:58;5.68;;;3.25;;
53271;SDS011;39160;48.580;7.756;2023-05-20T16:00:49;6.82;;;3.65;;
53271;SDS011;39160;48.580;7.756;2023-05-20T16:05:39;5.35;;;3.67;;
53271;SDS011;39160;48.580;7.756;2023-05-20T16:10:30;6.63;;;3.15;;
53271;SDS011;39160;48.580;7.756;2023-05-20T16:15:23;6.78;;;3.53;;
53271;SDS011;39160;48.580;7.756;2023-05-20T16:20:14;5.45;;;3.75;;
53271;SDS011;39160;48.580;7.756;2023-05-20T16:25:05;4.85;;;3.53;;
53271;SDS011;39160;48.580;7.756;2023-05-20T16:29:56;4.63;;;3.30;;
53271;SDS011;39160;48.580;7.756;2023-05-20T16:34:47;5.80;;;3.78;;
53271;SDS011;39160;48.580;7.756;2023-05-20T16:39:38;4.10;;;3.33;;
53271;SDS011;39160;48.580;7.756;2023-05-20T16:44:28;5.03;;;3.70;;
53271;SDS011;39160;48.580;7.756;2023-05-20T16:49:19;6.03;;;3.33;;
53271;SDS011;39160;48.580;7.756;2023-05-20T16:54:10;6.00;;;3.33;;
53271;SDS011;39160;48.580;7.756;2023-05-20T16:59:00;5.63;;;3.80;;
53271;SDS011;39160;48.580;7.756;2023-05-20T17:03:51;5.20;;;3.58;;
53271;SDS011;39160;48.580;7.756;2023-05-20T17:08:42;4.85;;;3.72;;
53271;SDS011;39160;48.580;7.756;2023-05-20T17:13:32;6.53;;;3.25;;
53271;SDS011;39160;48.580;7.756;2023-05-20T17:18:23;4.65;;;3.63;;
53271;SDS011;39160;48.580;7.756;2023-05-20T17:23:13;5.05;;;3.92;;
53271;SDS011;39160;48.580;7.756;2023-05-20T17:28:04;4.78;;;4.10;;
53271;SDS011;39160;48.580;7.756;2023-05-20T17:32:55;5.85;;;3.85;;
53271;SDS011;39160;48.580;7.756;2023-05-20T17:37:46;4.88;;;4.05;;
53271;SDS011;39160;48.580;7.756;2023-05-20T17:42:37;5.85;;;4.22;;
53271;SDS011;39160;48.580;7.756;2023-05-20T17:47:28;6.63;;;4.05;;
53271;SDS011;39160;48.580;7.756;2023-05-20T17:52:19;7.78;;;4.07;;
53271;SDS011;39160;48.580;7.756;2023-05-20T17:57:09;4.47;;;3.78;;
53271;SDS011;39160;48.580;7.756;2023-05-20T18:02:00;6.18;;;3.78;;
53271;SDS011;39160;48.580;7.756;2023-05-20T18:06:51;5.28;;;3.67;;
53271;SDS011;39160;48.580;7.756;2023-05-20T18:11:41;5.25;;;4.28;;
53271;SDS011;39160;48.580;7.756;2023-05-20T18:16:32;6.55;;;4.60;;
53271;SDS011;39160;48.580;7.756;2023-05-20T18:21:23;6.13;;;4.93;;
53271;SDS011;39160;48.580;7.756;2023-05-20T18:26:14;6.88;;;4.57;;
53271;SDS011;39160;48.580;7.756;2023-05-20T18:31:05;6.07;;;4.57;;
53271;SDS011;39160;48.580;7.756;2023-05-20T18:35:56;7.40;;;4.43;;
53271;SDS011;39160;48.580;7.756;2023-05-20T18:40:47;7.53;;;5.82;;
53271;SDS011;39160;48.580;7.756;2023-05-20T18:45:39;8.43;;;5.65;;
53271;SDS011;39160;48.580;7.756;2023-05-20T18:50:29;8.02;;;6.00;;
53271;SDS011;39160;48.580;7.756;2023-05-20T18:55:20;10.90;;;6.45;;
53271;SDS011;39160;48.580;7.756;2023-05-20T19:00:13;7.57;;;5.40;;
53271;SDS011;39160;48.580;7.756;2023-05-20T19:05:07;9.50;;;6.25;;
53271;SDS011;39160;48.580;7.756;2023-05-20T19:10:00;12.70;;;6.38;;
53271;SDS011;39160;48.580;7.756;2023-05-20T19:14:51;8.68;;;6.47;;
53271;SDS011;39160;48.580;7.756;2023-05-20T19:19:41;10.70;;;6.32;;
53271;SDS011;39160;48.580;7.756;2023-05-20T19:24:32;7.32;;;5.63;;
53271;SDS011;39160;48.580;7.756;2023-05-20T19:29:23;7.53;;;5.65;;
53271;SDS011;39160;48.580;7.756;2023-05-20T19:34:14;8.63;;;6.15;;
53271;SDS011;39160;48.580;7.756;2023-05-20T19:39:05;8.45;;;5.35;;
53271;SDS011;39160;48.580;7.756;2023-05-20T19:43:56;7.53;;;5.70;;
53271;SDS011;39160;48.580;7.756;2023-05-20T19:48:47;8.50;;;6.00;;
53271;SDS011;39160;48.580;7.756;2023-05-20T19:53:38;8.10;;;5.85;;
53271;SDS011;39160;48.580;7.756;2023-05-20T19:58:28;9.93;;;6.03;;
53271;SDS011;39160;48.580;7.756;2023-05-20T20:03:19;7.85;;;5.88;;
53271;SDS011;39160;48.580;7.756;2023-05-20T20:08:09;6.80;;;5.28;;
53271;SDS011;39160;48.580;7.756;2023-05-20T20:13:00;9.50;;;6.10;;
53271;SDS011;39160;48.580;7.756;2023-05-20T20:17:51;8.82;;;5.65;;
53271;SDS011;39160;48.580;7.756;2023-05-20T20:22:41;10.88;;;5.75;;
53271;SDS011;39160;48.580;7.756;2023-05-20T20:27:32;11.00;;;6.68;;
53271;SDS011;39160;48.580;7.756;2023-05-20T20:32:22;8.32;;;6.03;;
53271;SDS011;39160;48.580;7.756;2023-05-20T20:37:13;8.18;;;5.47;;
53271;SDS011;39160;48.580;7.756;2023-05-20T20:42:04;8.65;;;5.75;;
53271;SDS011;39160;48.580;7.756;2023-05-20T20:46:55;9.27;;;6.70;;
53271;SDS011;39160;48.580;7.756;2023-05-20T20:51:47;7.35;;;5.20;;
53271;SDS011;39160;48.580;7.756;2023-05-20T20:56:41;6.70;;;5.20;;
53271;SDS011;39160;48.580;7.756;2023-05-20T21:01:34;9.00;;;6.63;;
53271;SDS011;39160;48.580;7.756;2023-05-20T21:06:26;6.47;;;5.45;;
53271;SDS011;39160;48.580;7.756;2023-05-20T21:11:17;8.63;;;6.53;;
53271;SDS011;39160;48.580;7.756;2023-05-20T21:16:08;10.25;;;6.30;;
53271;SDS011;39160;48.580;7.756;2023-05-20T21:21:01;10.10;;;6.00;;
53271;SDS011;39160;48.580;7.756;2023-05-20T21:25:52;11.68;;;6.65;;
53271;SDS011;39160;48.580;7.756;2023-05-20T21:30:43;8.55;;;5.43;;
53271;SDS011;39160;48.580;7.756;2023-05-20T21:35:33;7.55;;;5.97;;
53271;SDS011;39160;48.580;7.756;2023-05-20T21:40:24;12.23;;;6.70;;
53271;SDS011;39160;48.580;7.756;2023-05-20T21:45:15;11.23;;;6.45;;
53271;SDS011;39160;48.580;7.756;2023-05-20T21:50:09;9.50;;;6.38;;
53271;SDS011;39160;48.580;7.756;2023-05-20T21:55:00;9.95;;;6.35;;
53271;SDS011;39160;48.580;7.756;2023-05-20T21:59:51;10.68;;;6.20;;
53271;SDS011;39160;48.580;7.756;2023-05-20T22:04:41;8.60;;;6.60;;
53271;SDS011;39160;48.580;7.756;2023-05-20T22:09:32;9.63;;;6.82;;
53271;SDS011;39160;48.580;7.756;2023-05-20T22:14:23;8.63;;;6.30;;
53271;SDS011;39160;48.580;7.756;2023-05-20T22:19:14;8.75;;;6.45;;
53271;SDS011;39160;48.580;7.756;2023-05-20T22:24:05;10.18;;;6.97;;
53271;SDS011;39160;48.580;7.756;2023-05-20T22:28:55;9.70;;;6.03;;
53271;SDS011;39160;48.580;7.756;2023-05-20T22:33:46;11.90;;;6.95;;
53271;SDS011;39160;48.580;7.756;2023-05-20T22:38:37;11.13;;;6.63;;
53271;SDS011;39160;48.580;7.756;2023-05-20T22:43:27;11.52;;;7.30;;
53271;SDS011;39160;48.580;7.756;2023-05-20T22:48:18;11.93;;;7.25;;
53271;SDS011;39160;48.580;7.756;2023-05-20T22:53:11;12.13;;;7.15;;
53271;SDS011;39160;48.580;7.756;2023-05-20T22:58:02;11.20;;;7.20;;
53271;SDS011;39160;48.580;7.756;2023-05-20T23:02:53;10.82;;;7.22;;
53271;SDS011;39160;48.580;7.756;2023-05-20T23:07:45;9.80;;;6.95;;
53271;SDS011;39160;48.580;7.756;2023-05-20T23:12:36;12.27;;;7.55;;
53271;SDS011;39160;48.580;7.756;2023-05-20T23:17:26;11.98;;;8.05;;
53271;SDS011;39160;48.580;7.756;2023-05-20T23:22:17;11.65;;;7.05;;
53271;SDS011;39160;48.580;7.756;2023-05-20T23:27:08;11.35;;;7.63;;
53271;SDS011;39160;48.580;7.756;2023-05-20T23:31:59;13.68;;;8.82;;
53271;SDS011;39160;48.580;7.756;2023-05-20T23:36:49;10.32;;;6.97;;
53271;SDS011;39160;48.580;7.756;2023-05-20T23:41:41;10.55;;;7.88;;
53271;SDS011;39160;48.580;7.756;2023-05-20T23:46:32;13.02;;;8.23;;
53271;SDS011;39160;48.580;7.756;2023-05-20T23:51:23;12.30;;;7.50;;
53271;SDS011;39160;48.580;7.756;2023-05-20T23:56:13;11.10;;;7.55;;
